Time;durP1;ratioP1;P1;durP2;ratioP2;P2;SDS_P1;SDS_P2;PMS_P1;PMS_P2;Temp;Humidity;BMP_temperature;BMP_pressure;BME280_temperature;BME280_humidity;BME280_pressure;Samples;Min_cycle;Max_cycle;Signal;HPM_P1;HPM_P2
2023/08/30 00:01:03;;;;;;;1.77;0.90;;;;;;;12.41;100.00;99688.50;5102618;28;20048;-67
2023/08/30 00:03:29;;;;;;;2.40;1.02;;;;;;;12.50;100.00;99674.78;5100296;28;20064;-67
2023/08/30 00:06:02;;;;;;;6.85;1.23;;;;;;;12.43;100.00;99680.50;5102168;28;20074;-67
2023/08/30 00:08:29;;;;;;;3.42;1.17;;;;;;;12.44;100.00;99680.41;5111097;28;20055;-67
2023/08/30 00:10:58;;;;;;;5.75;1.40;;;;;;;12.40;100.00;99673.66;5111280;28;20474;-67
2023/08/30 00:13:30;;;;;;;2.00;0.82;;;;;;;12.47;100.00;99685.47;5109604;28;20044;-67
2023/08/30 00:15:57;;;;;;;3.10;1.05;;;;;;;12.42;100.00;99676.19;5110894;28;20058;-67
2023/08/30 00:18:23;;;;;;;2.55;0.90;;;;;;;12.52;100.00;99693.06;5109194;28;20160;-67
2023/08/30 00:20:50;;;;;;;6.45;1.23;;;;;;;12.41;100.00;99685.88;5098375;28;20047;-68
2023/08/30 00:23:17;;;;;;;3.70;1.00;;;;;;;12.27;100.00;99691.97;5095849;28;20048;-67
2023/08/30 00:25:43;;;;;;;5.53;1.40;;;;;;;12.32;100.00;99689.91;5104443;28;20051;-67
2023/08/30 00:28:10;;;;;;;8.27;1.20;;;;;;;12.17;100.00;99693.47;5103100;28;20051;-67
2023/08/30 00:30:37;;;;;;;5.80;1.10;;;;;;;12.28;100.00;99684.94;5109181;28;20056;-67
2023/08/30 00:33:05;;;;;;;4.70;1.20;;;;;;;12.21;100.00;99694.13;5102263;28;20145;-67
2023/08/30 00:35:31;;;;;;;6.40;1.55;;;;;;;12.26;100.00;99687.63;5094554;28;20048;-68
2023/08/30 00:37:58;;;;;;;3.97;1.20;;;;;;;12.09;100.00;99696.56;5095177;28;20047;-68
2023/08/30 00:40:25;;;;;;;4.32;1.30;;;;;;;11.95;100.00;99680.78;5109962;28;20050;-68
2023/08/30 00:42:52;;;;;;;3.92;1.33;;;;;;;12.18;100.00;99694.28;5100484;28;20055;-67
2023/08/30 00:45:20;;;;;;;7.07;1.30;;;;;;;11.84;100.00;99691.88;5110876;28;20500;-67
2023/08/30 00:47:47;;;;;;;3.78;1.05;;;;;;;12.06;100.00;99691.50;5110528;28;20405;-67
2023/08/30 00:50:14;;;;;;;8.95;1.75;;;;;;;11.95;100.00;99693.88;5108356;28;20043;-69
2023/08/30 00:52:41;;;;;;;3.88;1.08;;;;;;;11.99;100.00;99684.06;5104849;28;20066;-68
2023/08/30 00:55:09;;;;;;;6.03;1.00;;;;;;;11.93;100.00;99691.38;5109974;28;20051;-68
2023/08/30 00:57:37;;;;;;;5.70;1.38;;;;;;;11.59;100.00;99689.88;5097322;28;20127;-68
2023/08/30 01:00:06;;;;;;;6.43;1.38;;;;;;;11.95;100.00;99696.50;5104293;28;20517;-67
2023/08/30 01:02:33;;;;;;;3.63;1.20;;;;;;;11.96;100.00;99693.81;5098976;28;20044;-67
2023/08/30 01:04:59;;;;;;;4.85;1.40;;;;;;;11.90;100.00;99709.94;5093366;28;20047;-67
2023/08/30 01:07:27;;;;;;;5.88;1.35;;;;;;;11.73;100.00;99710.88;5089479;28;20127;-67
2023/08/30 01:09:54;;;;;;;5.80;1.20;;;;;;;11.85;100.00;99711.94;5105138;28;20131;-67
2023/08/30 01:12:27;;;;;;;3.92;1.20;;;;;;;11.81;100.00;99707.81;5108445;28;20130;-67
2023/08/30 01:15:13;;;;;;;6.05;1.60;;;;;;;11.92;100.00;99705.44;5107719;28;20405;-67
2023/08/30 01:17:42;;;;;;;4.68;1.20;;;;;;;11.69;100.00;99705.91;5108725;28;20047;-68
2023/08/30 01:20:14;;;;;;;7.00;1.30;;;;;;;11.68;100.00;99719.94;5105600;28;20047;-67
2023/08/30 01:22:53;;;;;;;5.82;1.45;;;;;;;11.76;100.00;99726.44;5092509;28;20076;-68
2023/08/30 01:25:44;;;;;;;5.63;1.65;;;;;;;11.74;100.00;99717.00;5106509;28;20035;-68
2023/08/30 01:28:13;;;;;;;7.05;1.60;;;;;;;11.50;100.00;99727.94;5109231;28;20047;-67
2023/08/30 01:30:42;;;;;;;4.68;1.45;;;;;;;11.66;100.00;99722.66;5094592;28;20043;-67
2023/08/30 01:33:11;;;;;;;5.47;1.30;;;;;;;11.84;100.00;99723.34;5103318;28;20044;-67
2023/08/30 01:35:40;;;;;;;6.00;1.50;;;;;;;11.67;100.00;99733.97;5110245;28;20477;-67
2023/08/30 01:38:08;;;;;;;8.77;1.30;;;;;;;11.57;100.00;99733.69;5091628;28;20127;-68
2023/08/30 01:40:40;;;;;;;4.80;1.20;;;;;;;11.49;100.00;99741.13;5108062;28;20048;-67
2023/08/30 01:43:08;;;;;;;9.73;1.55;;;;;;;11.88;100.00;99742.38;5099091;28;20048;-68
2023/08/30 01:45:38;;;;;;;6.57;1.73;;;;;;;11.92;100.00;99736.91;5109191;28;20048;-67
2023/08/30 01:48:08;;;;;;;4.75;1.40;;;;;;;12.05;100.00;99741.41;5108570;28;20047;-67
2023/08/30 01:50:35;;;;;;;4.93;1.30;;;;;;;11.80;100.00;99747.25;5099872;28;20058;-68
2023/08/30 01:53:03;;;;;;;6.80;1.90;;;;;;;11.96;100.00;99746.28;5102349;28;20394;-67
2023/08/30 01:55:31;;;;;;;6.60;1.38;;;;;;;12.10;100.00;99739.38;5098816;28;20358;-67
2023/08/30 01:57:58;;;;;;;5.13;1.20;;;;;;;12.05;100.00;99742.25;5106518;28;20052;-68
2023/08/30 02:00:25;;;;;;;5.57;1.30;;;;;;;11.92;100.00;99746.56;5109220;28;20055;-68
2023/08/30 02:02:52;;;;;;;8.85;1.13;;;;;;;12.02;100.00;99741.59;5107580;28;20635;-68
2023/08/30 02:05:18;;;;;;;8.10;1.77;;;;;;;11.89;100.00;99741.47;5105701;28;20054;-68
2023/08/30 02:08:00;;;;;;;2.70;0.95;;;;;;;11.90;100.00;99748.41;5108587;28;20138;-68
2023/08/30 02:10:40;;;;;;;7.07;1.35;;;;;;;11.90;100.00;99744.03;5117048;28;20048;-67
2023/08/30 02:13:08;;;;;;;4.85;1.10;;;;;;;11.42;100.00;99722.31;5102554;28;20510;-68
2023/08/30 02:15:36;;;;;;;6.10;1.27;;;;;;;11.80;100.00;99734.97;5109705;28;20461;-67
2023/08/30 02:18:04;;;;;;;6.57;1.50;;;;;;;11.89;100.00;99746.69;5108381;28;20055;-67
2023/08/30 02:20:32;;;;;;;6.40;1.45;;;;;;;11.70;100.00;99745.13;5109506;28;20134;-67
2023/08/30 02:22:59;;;;;;;7.82;1.20;;;;;;;11.69;100.00;99743.47;5102597;28;20055;-67
2023/08/30 02:25:34;;;;;;;7.88;1.60;;;;;;;11.65;100.00;99754.22;5111692;28;20043;-67
2023/08/30 02:28:01;;;;;;;7.28;1.17;;;;;;;11.83;100.00;99755.78;5112550;28;20051;-67
2023/08/30 02:30:27;;;;;;;7.38;1.40;;;;;;;11.91;100.00;99750.09;5107889;28;20047;-67
2023/08/30 02:32:54;;;;;;;6.60;1.60;;;;;;;11.68;100.00;99761.91;5099500;28;20401;-67
2023/08/30 02:35:21;;;;;;;7.53;1.35;;;;;;;11.87;100.00;99762.53;5103517;28;20051;-67
2023/08/30 02:37:47;;;;;;;8.35;1.40;;;;;;;11.80;100.00;99765.59;5107278;28;20066;-67
2023/08/30 02:40:14;;;;;;;4.22;1.13;;;;;;;11.81;100.00;99777.75;5098680;28;20058;-67
2023/08/30 02:42:41;;;;;;;5.90;1.23;;;;;;;11.78;100.00;99777.00;5100463;28;20400;-68
2023/08/30 02:45:08;;;;;;;4.43;1.25;;;;;;;11.78;100.00;99782.25;5111838;28;20043;-67
2023/08/30 02:47:35;;;;;;;4.05;1.27;;;;;;;11.91;100.00;99781.59;5103652;28;20052;-67
2023/08/30 02:50:02;;;;;;;7.10;1.20;;;;;;;11.92;100.00;99763.13;5109587;27;20051;-67
2023/08/30 02:52:28;;;;;;;6.78;1.27;;;;;;;11.80;100.00;99778.72;5098934;28;20048;-67
2023/08/30 02:54:55;;;;;;;6.72;1.30;;;;;;;11.90;100.00;99774.63;5103867;28;20036;-67
2023/08/30 02:57:22;;;;;;;7.78;1.50;;;;;;;11.76;100.00;99778.88;5102365;28;20043;-67
2023/08/30 02:59:48;;;;;;;5.00;1.35;;;;;;;11.79;100.00;99775.22;5112550;28;20312;-67
2023/08/30 03:02:15;;;;;;;6.00;1.55;;;;;;;11.78;100.00;99781.44;5107714;28;20051;-67
2023/08/30 03:04:42;;;;;;;5.15;1.33;;;;;;;11.75;100.00;99782.44;5097366;28;20127;-67
2023/08/30 03:07:08;;;;;;;3.97;1.30;;;;;;;11.78;100.00;99784.06;5109706;28;20070;-67
2023/08/30 03:09:35;;;;;;;6.43;1.40;;;;;;;11.67;100.00;99776.81;5100679;28;20343;-67
2023/08/30 03:12:02;;;;;;;7.18;1.55;;;;;;;11.65;100.00;99785.66;5102694;28;20059;-67
2023/08/30 03:14:29;;;;;;;7.00;1.60;;;;;;;11.56;100.00;99785.28;5102931;28;20055;-67
2023/08/30 03:16:55;;;;;;;5.32;1.50;;;;;;;11.69;100.00;99781.97;5110742;28;20047;-68
2023/08/30 03:19:22;;;;;;;5.78;1.40;;;;;;;11.71;100.00;99775.69;5103104;28;20058;-67
2023/08/30 03:21:49;;;;;;;10.90;1.30;;;;;;;11.69;100.00;99774.94;5092240;28;20051;-67
2023/08/30 03:24:16;;;;;;;7.75;2.33;;;;;;;11.51;100.00;99776.84;5101838;28;20050;-67
2023/08/30 03:26:43;;;;;;;8.38;1.65;;;;;;;11.72;100.00;99760.78;5099058;28;20107;-67
2023/08/30 03:29:10;;;;;;;5.70;1.10;;;;;;;11.99;100.00;99770.63;5102019;28;20054;-67
2023/08/30 03:31:36;;;;;;;10.10;1.70;;;;;;;11.91;100.00;99782.41;5107714;28;20055;-67
2023/08/30 03:34:03;;;;;;;9.85;1.60;;;;;;;11.83;100.00;99782.00;5090634;28;20048;-67
2023/08/30 03:36:30;;;;;;;6.65;1.65;;;;;;;11.91;100.00;99785.03;5099360;28;20054;-67
2023/08/30 03:38:56;;;;;;;12.10;1.73;;;;;;;11.96;100.00;99792.66;5102519;28;20050;-67
2023/08/30 03:41:23;;;;;;;7.03;1.80;;;;;;;11.91;100.00;99787.66;5098499;28;20048;-67
2023/08/30 03:43:50;;;;;;;10.20;1.60;;;;;;;11.72;100.00;99784.38;5105004;28;20396;-67
2023/08/30 03:46:16;;;;;;;12.48;1.92;;;;;;;11.87;100.00;99787.91;5097403;28;20066;-67
2023/08/30 03:48:43;;;;;;;9.27;1.60;;;;;;;11.75;100.00;99774.56;5109829;28;20455;-67
2023/08/30 03:51:10;;;;;;;10.00;2.20;;;;;;;11.81;100.00;99780.38;5106633;28;20044;-67
2023/08/30 03:53:36;;;;;;;9.20;1.50;;;;;;;11.78;100.00;99766.53;5108366;28;20086;-67
2023/08/30 03:56:03;;;;;;;6.95;1.70;;;;;;;11.79;100.00;99775.22;5096862;28;20367;-67
2023/08/30 03:58:30;;;;;;;9.95;1.92;;;;;;;11.78;100.00;99777.00;5107705;28;20067;-66
2023/08/30 04:00:57;;;;;;;12.27;2.25;;;;;;;11.72;100.00;99780.00;5104388;28;20048;-67
2023/08/30 04:03:24;;;;;;;9.25;1.80;;;;;;;11.62;100.00;99772.75;5109539;28;20048;-68
2023/08/30 04:05:57;;;;;;;10.90;1.95;;;;;;;11.75;100.00;99781.59;5110831;28;20113;-68
2023/08/30 04:08:24;;;;;;;6.45;1.63;;;;;;;11.88;100.00;99787.84;5106760;28;20496;-68
2023/08/30 04:10:54;;;;;;;9.93;2.17;;;;;;;11.99;100.00;99792.47;5097619;28;20074;-68
2023/08/30 04:13:21;;;;;;;7.78;1.83;;;;;;;11.98;100.00;99792.56;5106162;28;20097;-68
2023/08/30 04:15:48;;;;;;;9.50;1.77;;;;;;;11.92;100.00;99783.28;5110638;28;20040;-68
2023/08/30 04:18:15;;;;;;;14.43;2.55;;;;;;;11.83;100.00;99766.28;5095833;28;20572;-67
2023/08/30 04:20:46;;;;;;;11.05;2.40;;;;;;;11.93;100.00;99784.97;5100652;28;20047;-68
2023/08/30 04:23:13;;;;;;;11.07;2.33;;;;;;;12.12;100.00;99790.81;5108761;28;20206;-67
2023/08/30 04:25:40;;;;;;;12.65;2.40;;;;;;;11.96;100.00;99784.78;5109979;28;20484;-67
2023/08/30 04:28:07;;;;;;;11.80;2.35;;;;;;;12.14;100.00;99794.19;5098881;28;20051;-67
2023/08/30 04:30:36;;;;;;;9.73;2.20;;;;;;;12.18;100.00;99802.72;5098106;28;20051;-67
2023/08/30 04:33:05;;;;;;;12.77;2.15;;;;;;;11.96;100.00;99779.53;5108239;28;20048;-67
2023/08/30 04:35:32;;;;;;;9.40;1.88;;;;;;;12.12;100.00;99803.94;5110074;27;20472;-68
2023/08/30 04:38:00;;;;;;;9.82;1.98;;;;;;;12.14;100.00;99804.69;5106545;28;20055;-68
2023/08/30 04:40:28;;;;;;;9.55;2.17;;;;;;;12.14;100.00;99793.34;5103216;28;20525;-68
2023/08/30 04:42:55;;;;;;;9.57;2.20;;;;;;;12.18;100.00;99794.00;5108525;28;20098;-68
2023/08/30 04:45:22;;;;;;;14.25;2.55;;;;;;;12.07;100.00;99800.72;5109619;28;20488;-68
2023/08/30 04:47:49;;;;;;;7.78;1.73;;;;;;;12.08;100.00;99794.56;5101018;28;20048;-68
2023/08/30 04:50:16;;;;;;;11.98;2.33;;;;;;;12.10;100.00;99800.56;5105622;28;20567;-68
2023/08/30 04:52:43;;;;;;;7.63;1.75;;;;;;;12.11;100.00;99807.50;5101606;28;20048;-68
2023/08/30 04:55:10;;;;;;;13.82;2.20;;;;;;;12.06;100.00;99800.84;5102608;28;20044;-68
2023/08/30 04:57:37;;;;;;;9.80;1.92;;;;;;;11.90;100.00;99795.63;5094877;28;20511;-68
2023/08/30 05:00:05;;;;;;;13.75;3.33;;;;;;;11.91;100.00;99794.69;5094699;28;20054;-68
2023/08/30 05:02:31;;;;;;;10.10;1.90;;;;;;;11.81;100.00;99804.84;5097880;28;20067;-68
2023/08/30 05:04:58;;;;;;;12.60;2.25;;;;;;;11.95;100.00;99790.94;5107476;28;20062;-68
2023/08/30 05:07:25;;;;;;;7.07;1.67;;;;;;;12.05;100.00;99804.38;5107237;28;20086;-67
2023/08/30 05:09:52;;;;;;;12.07;2.97;;;;;;;11.83;100.00;99800.38;5094978;28;20055;-68
2023/08/30 05:12:18;;;;;;;13.70;2.78;;;;;;;11.87;100.00;99809.75;5100846;28;20051;-68
2023/08/30 05:14:45;;;;;;;7.55;1.85;;;;;;;11.84;100.00;99806.44;5106312;28;20054;-69
2023/08/30 05:17:12;;;;;;;10.55;2.20;;;;;;;11.91;100.00;99816.50;5109764;28;20044;-68
2023/08/30 05:19:38;;;;;;;13.20;2.10;;;;;;;11.76;100.00;99806.91;5101151;28;20052;-68
2023/08/30 05:22:05;;;;;;;7.95;1.55;;;;;;;11.87;100.00;99812.34;5108342;28;20054;-68
2023/08/30 05:24:32;;;;;;;8.85;2.17;;;;;;;11.91;100.00;99810.44;5109914;28;20131;-68
2023/08/30 05:26:58;;;;;;;10.48;2.33;;;;;;;11.88;100.00;99815.81;5110225;28;20052;-68
2023/08/30 05:29:26;;;;;;;11.20;2.22;;;;;;;11.92;100.00;99809.50;5105983;28;20505;-68
2023/08/30 05:31:52;;;;;;;13.82;2.28;;;;;;;11.71;100.00;99809.78;5108118;28;20428;-68
2023/08/30 05:34:19;;;;;;;9.15;1.98;;;;;;;11.84;100.00;99811.69;5109670;28;20522;-68
2023/08/30 05:36:46;;;;;;;13.60;2.90;;;;;;;11.65;100.00;99815.38;5094626;28;20040;-68
2023/08/30 05:39:12;;;;;;;20.55;2.33;;;;;;;11.65;100.00;99809.25;5094563;28;20499;-68
2023/08/30 05:41:39;;;;;;;10.65;2.08;;;;;;;11.89;100.00;99817.53;5100518;28;20052;-68
2023/08/30 05:44:07;;;;;;;9.23;2.05;;;;;;;11.85;100.00;99821.25;5107879;28;20054;-68
2023/08/30 05:46:33;;;;;;;6.32;1.80;;;;;;;12.11;100.00;99830.25;5108998;28;20708;-68
2023/08/30 05:49:02;;;;;;;10.98;1.90;;;;;;;11.79;100.00;99832.91;5107435;28;20079;-68
2023/08/30 05:51:29;;;;;;;11.27;2.45;;;;;;;11.98;100.00;99831.91;5107607;28;20100;-68
2023/08/30 05:53:56;;;;;;;7.75;1.77;;;;;;;11.96;100.00;99827.59;5107098;28;20053;-68
2023/08/30 05:56:23;;;;;;;10.95;2.30;;;;;;;11.94;100.00;99820.75;5091829;28;20048;-68
2023/08/30 05:58:49;;;;;;;10.07;2.20;;;;;;;12.15;100.00;99840.50;5103853;28;20092;-68
2023/08/30 06:01:19;;;;;;;10.68;2.08;;;;;;;12.14;100.00;99840.56;5110439;28;20492;-68
2023/08/30 06:03:46;;;;;;;7.50;1.98;;;;;;;12.38;100.00;99842.69;5110313;27;20051;-68
2023/08/30 06:06:16;;;;;;;10.75;2.03;;;;;;;12.51;100.00;99851.53;5111003;28;20058;-67
2023/08/30 06:08:46;;;;;;;10.40;2.22;;;;;;;12.55;100.00;99845.16;5105966;28;20127;-67
2023/08/30 06:11:13;;;;;;;9.82;1.80;;;;;;;12.63;100.00;99839.47;5105528;28;20043;-67
2023/08/30 06:13:40;;;;;;;8.80;1.88;;;;;;;12.73;100.00;99848.47;5090942;28;20067;-67
2023/08/30 06:16:07;;;;;;;9.02;2.10;;;;;;;12.57;100.00;99845.94;5103134;28;20144;-67
2023/08/30 06:18:34;;;;;;;9.30;1.85;;;;;;;12.76;100.00;99845.66;5111011;28;20494;-67
2023/08/30 06:21:01;;;;;;;10.50;2.50;;;;;;;12.92;100.00;99842.91;5104769;27;20054;-67
2023/08/30 06:23:27;;;;;;;12.18;2.35;;;;;;;12.99;100.00;99852.13;5099025;28;20086;-68
2023/08/30 06:25:55;;;;;;;12.10;2.22;;;;;;;13.00;100.00;99850.34;5098912;28;20075;-68
2023/08/30 06:28:22;;;;;;;10.13;2.50;;;;;;;13.07;100.00;99857.75;5106982;28;20047;-68
2023/08/30 06:30:50;;;;;;;10.32;1.92;;;;;;;13.01;100.00;99854.66;5107759;28;20055;-68
2023/08/30 06:33:17;;;;;;;6.30;1.42;;;;;;;12.95;100.00;99858.50;5110182;28;20044;-68
2023/08/30 06:35:43;;;;;;;14.77;2.53;;;;;;;12.60;100.00;99860.66;5112496;28;20070;-68
2023/08/30 06:38:10;;;;;;;11.18;2.60;;;;;;;12.83;100.00;99869.75;5105117;28;20043;-68
2023/08/30 06:40:43;;;;;;;8.40;2.30;;;;;;;12.79;100.00;99886.66;5105631;28;20493;-68
2023/08/30 06:43:10;;;;;;;11.45;2.58;;;;;;;12.71;100.00;99885.34;5092044;28;20044;-68
2023/08/30 06:45:41;;;;;;;8.82;1.95;;;;;;;13.11;100.00;99879.44;5101608;28;20062;-68
2023/08/30 06:48:08;;;;;;;9.25;2.15;;;;;;;13.16;100.00;99876.53;5098600;28;20083;-68
2023/08/30 06:50:35;;;;;;;11.18;2.10;;;;;;;13.55;100.00;99898.66;5095457;28;20561;-68
2023/08/30 06:53:03;;;;;;;13.68;2.45;;;;;;;13.55;100.00;99894.25;5102006;27;20050;-68
2023/08/30 06:55:30;;;;;;;12.82;2.90;;;;;;;13.24;100.00;99898.78;5105877;28;20051;-68
2023/08/30 06:57:56;;;;;;;8.32;1.80;;;;;;;13.61;100.00;99901.72;5109311;28;20066;-68
2023/08/30 07:00:23;;;;;;;9.63;2.38;;;;;;;13.70;100.00;99900.31;5100473;28;20051;-68
2023/08/30 07:02:50;;;;;;;18.33;2.78;;;;;;;13.35;100.00;99906.03;5109449;28;20063;-68
2023/08/30 07:05:16;;;;;;;7.72;1.88;;;;;;;13.36;100.00;99902.44;5111352;27;20448;-68
2023/08/30 07:07:43;;;;;;;9.85;2.50;;;;;;;13.55;100.00;99906.56;5109233;28;20687;-68
2023/08/30 07:10:10;;;;;;;10.63;2.88;;;;;;;13.43;100.00;99902.91;5111874;28;20059;-68
2023/08/30 07:12:37;;;;;;;13.23;2.30;;;;;;;13.28;100.00;99900.25;5107149;28;20044;-68
2023/08/30 07:15:04;;;;;;;8.90;2.20;;;;;;;13.49;100.00;99902.50;5105517;28;20040;-68
2023/08/30 07:17:30;;;;;;;11.77;2.47;;;;;;;13.42;100.00;99907.31;5091849;28;20135;-68
2023/08/30 07:20:16;;;;;;;11.18;2.33;;;;;;;13.25;100.00;99913.59;5107803;28;20051;-68
2023/08/30 07:22:43;;;;;;;9.27;2.40;;;;;;;13.40;100.00;99908.34;5103685;28;20376;-68
2023/08/30 07:25:10;;;;;;;14.23;2.55;;;;;;;13.37;100.00;99909.41;5111941;28;20050;-68
2023/08/30 07:27:37;;;;;;;11.55;2.88;;;;;;;13.15;100.00;99911.63;5110623;28;20473;-68
2023/08/30 07:30:04;;;;;;;11.07;3.05;;;;;;;13.30;100.00;99916.78;5112209;28;20048;-68
2023/08/30 07:32:31;;;;;;;12.80;2.25;;;;;;;13.18;100.00;99922.78;5104708;28;20051;-68
2023/08/30 07:34:58;;;;;;;12.70;2.78;;;;;;;13.37;100.00;99916.41;5111673;28;20397;-68
2023/08/30 07:37:25;;;;;;;11.73;2.42;;;;;;;13.43;100.00;99926.56;5110236;28;20051;-67
2023/08/30 07:39:52;;;;;;;7.20;1.80;;;;;;;13.50;100.00;99925.25;5111546;28;20044;-68
2023/08/30 07:42:19;;;;;;;8.90;2.17;;;;;;;13.54;100.00;99939.03;5102838;28;20048;-68
2023/08/30 07:44:49;;;;;;;11.13;2.30;;;;;;;13.97;100.00;99936.31;5106303;28;20052;-68
2023/08/30 07:47:16;;;;;;;13.55;2.78;;;;;;;13.57;100.00;99930.97;5110288;28;20437;-68
2023/08/30 07:49:43;;;;;;;11.60;3.33;;;;;;;13.33;100.00;99949.09;5108957;28;20047;-69
2023/08/30 07:52:10;;;;;;;13.90;3.20;;;;;;;13.48;100.00;99945.53;5102990;28;20052;-68
2023/08/30 07:54:41;;;;;;;8.07;2.30;;;;;;;13.30;100.00;99936.97;5102222;28;20101;-68
2023/08/30 07:57:08;;;;;;;14.68;2.53;;;;;;;13.64;100.00;99937.53;5103749;28;20453;-68
2023/08/30 07:59:38;;;;;;;10.05;2.40;;;;;;;13.44;100.00;99955.41;5109304;28;20059;-68
2023/08/30 08:02:08;;;;;;;9.40;2.00;;;;;;;13.33;100.00;99954.38;5103879;28;20044;-68
2023/08/30 08:04:35;;;;;;;13.00;2.25;;;;;;;13.41;100.00;99952.13;5107729;28;20471;-68
2023/08/30 08:07:04;;;;;;;14.30;3.03;;;;;;;13.40;100.00;99961.81;5110900;28;20050;-68
2023/08/30 08:09:32;;;;;;;10.05;2.13;;;;;;;13.44;100.00;99955.41;5110259;28;20075;-68
2023/08/30 08:11:58;;;;;;;8.95;2.28;;;;;;;13.45;100.00;99958.88;5096432;28;20047;-68
2023/08/30 08:14:25;;;;;;;10.73;2.15;;;;;;;13.63;100.00;99963.00;5105067;28;20058;-68
2023/08/30 08:16:52;;;;;;;11.45;2.88;;;;;;;13.68;100.00;99967.94;5096371;28;20134;-68
2023/08/30 08:19:20;;;;;;;10.95;2.85;;;;;;;13.76;100.00;99972.75;5100827;28;20055;-67
2023/08/30 08:21:53;;;;;;;14.90;2.65;;;;;;;13.65;100.00;99963.75;5105181;28;20173;-68
2023/08/30 08:24:20;;;;;;;9.90;2.17;;;;;;;13.79;100.00;99970.78;5109343;28;20051;-68
2023/08/30 08:26:47;;;;;;;7.28;2.58;;;;;;;14.15;100.00;99969.34;5109828;28;20050;-68
2023/08/30 08:29:14;;;;;;;15.60;2.75;;;;;;;14.07;100.00;99979.53;5109611;28;20097;-68
2023/08/30 08:31:41;;;;;;;8.93;2.20;;;;;;;14.00;100.00;99957.16;5091709;28;20054;-68
2023/08/30 08:34:12;;;;;;;9.27;2.35;;;;;;;14.30;100.00;99980.66;5110364;28;20054;-68
2023/08/30 08:36:40;;;;;;;8.93;2.10;;;;;;;14.04;100.00;99988.47;5105437;28;20122;-68
2023/08/30 08:39:09;;;;;;;8.85;2.22;;;;;;;14.09;100.00;99989.94;5106645;28;20555;-68
2023/08/30 08:41:43;;;;;;;9.00;2.13;;;;;;;13.79;100.00;100004.97;5102612;28;20046;-68
2023/08/30 08:44:10;;;;;;;15.30;2.60;;;;;;;13.74;100.00;100003.53;5105657;28;20048;-68
2023/08/30 08:46:39;;;;;;;12.05;2.38;;;;;;;13.70;100.00;100004.69;5097831;28;20123;-68
2023/08/30 08:49:13;;;;;;;9.63;2.45;;;;;;;13.66;100.00;99998.78;5099524;28;20084;-68
2023/08/30 08:51:42;;;;;;;8.93;2.03;;;;;;;13.79;100.00;99999.72;5101448;28;20466;-68
2023/08/30 08:54:10;;;;;;;13.35;2.97;;;;;;;13.74;100.00;100001.78;5108949;28;20653;-68
2023/08/30 08:56:37;;;;;;;11.00;1.77;;;;;;;13.75;100.00;100002.63;5095975;28;20277;-68
2023/08/30 08:59:08;;;;;;;10.43;2.20;;;;;;;13.72;100.00;100008.06;5098660;28;20056;-68
2023/08/30 09:01:39;;;;;;;9.60;2.17;;;;;;;13.93;100.00;99998.81;5090425;28;20052;-68
2023/08/30 09:04:08;;;;;;;12.13;2.20;;;;;;;13.97;100.00;100000.34;5102293;28;20047;-68
2023/08/30 09:06:36;;;;;;;11.38;2.42;;;;;;;13.81;100.00;99986.44;5110117;28;20082;-68
2023/08/30 09:09:03;;;;;;;10.05;1.92;;;;;;;13.81;100.00;99994.31;5101091;28;20047;-68
2023/08/30 09:11:31;;;;;;;8.40;2.15;;;;;;;13.72;100.00;100006.28;5105039;28;20126;-68
2023/08/30 09:14:14;;;;;;;9.32;2.00;;;;;;;14.10;100.00;99996.91;5096918;28;20469;-68
2023/08/30 09:16:40;;;;;;;10.85;2.40;;;;;;;13.88;100.00;99992.16;5101341;28;20392;-68
2023/08/30 09:19:09;;;;;;;9.65;2.17;;;;;;;14.36;100.00;100003.13;5102909;28;20474;-68
2023/08/30 09:21:37;;;;;;;6.65;1.70;;;;;;;14.68;100.00;100005.44;5104813;28;20531;-68
2023/08/30 09:24:06;;;;;;;13.90;2.40;;;;;;;14.33;100.00;100000.69;5107603;28;20047;-68
2023/08/30 09:26:37;;;;;;;10.85;2.08;;;;;;;14.22;100.00;99982.97;5097756;28;20055;-68
2023/08/30 09:29:08;;;;;;;7.22;2.65;;;;;;;14.83;100.00;99979.88;5101835;28;20054;-68
2023/08/30 09:31:40;;;;;;;8.57;2.15;;;;;;;15.17;100.00;99988.97;5099425;28;20422;-68
2023/08/30 09:34:07;;;;;;;8.77;1.92;;;;;;;15.04;100.00;99986.34;5105985;28;20087;-68
2023/08/30 09:36:35;;;;;;;11.60;2.08;;;;;;;15.03;100.00;99983.78;5108166;28;20051;-68
2023/08/30 09:39:20;;;;;;;6.80;1.75;;;;;;;15.58;100.00;99982.59;5093016;28;20488;-68
2023/08/30 09:41:49;;;;;;;9.90;2.20;;;;;;;15.31;100.00;99988.84;5098911;28;20129;-68
2023/08/30 09:44:20;;;;;;;8.02;2.00;;;;;;;15.71;100.00;99987.88;5094638;28;20048;-68
2023/08/30 09:46:55;;;;;;;10.25;2.30;;;;;;;15.60;100.00;99983.34;5096000;28;20051;-68
2023/08/30 09:49:23;;;;;;;10.15;2.45;;;;;;;15.59;100.00;99988.75;5112742;28;20051;-68
2023/08/30 09:51:52;;;;;;;11.65;2.80;;;;;;;15.51;100.00;99991.91;5101862;28;20101;-68
2023/08/30 09:54:20;;;;;;;8.38;1.73;;;;;;;15.60;100.00;99993.06;5099754;28;20040;-68
2023/08/30 09:56:53;;;;;;;6.00;1.55;;;;;;;15.61;100.00;99987.66;5100833;28;20043;-68
2023/08/30 09:59:19;;;;;;;8.00;1.90;;;;;;;15.63;100.00;99987.56;5109817;28;20043;-68
2023/08/30 10:01:52;;;;;;;7.30;1.60;;;;;;;15.92;100.00;99982.91;5109608;28;20048;-68
2023/08/30 10:04:20;;;;;;;10.38;2.03;;;;;;;15.94;100.00;99983.63;5101236;28;20550;-68
2023/08/30 10:06:47;;;;;;;7.13;1.75;;;;;;;16.02;100.00;99994.47;5096822;28;20462;-68
2023/08/30 10:09:16;;;;;;;6.78;1.55;;;;;;;16.14;100.00;99979.53;5104997;28;20055;-68
2023/08/30 10:11:46;;;;;;;7.50;1.88;;;;;;;15.83;100.00;99999.38;5104188;28;20043;-68
2023/08/30 10:14:14;;;;;;;8.60;2.00;;;;;;;15.60;100.00;99988.63;5092361;28;20097;-68
2023/08/30 10:16:43;;;;;;;7.57;1.65;;;;;;;15.76;100.00;99996.34;5104233;28;20050;-68
2023/08/30 10:19:31;;;;;;;6.15;1.50;;;;;;;15.83;100.00;99991.44;5095360;28;20507;-68
2023/08/30 10:22:05;;;;;;;6.68;1.80;;;;;;;15.98;100.00;99986.88;5106654;28;20392;-68
2023/08/30 10:24:38;;;;;;;4.45;1.35;;;;;;;16.19;100.00;99985.31;5098141;28;20051;-68
2023/08/30 10:27:26;;;;;;;9.35;1.95;;;;;;;15.66;100.00;99987.34;5097392;28;20105;-68
2023/08/30 10:29:54;;;;;;;6.97;1.60;;;;;;;15.56;100.00;99972.19;5110739;28;20399;-68
2023/08/30 10:32:21;;;;;;;7.80;1.90;;;;;;;15.83;100.00;99988.81;5108813;28;20051;-68
2023/08/30 10:34:49;;;;;;;7.20;1.52;;;;;;;16.12;100.00;99992.84;5109343;28;20060;-68
2023/08/30 10:37:23;;;;;;;8.52;1.92;;;;;;;16.02;100.00;99989.19;5097534;28;20040;-68
2023/08/30 10:39:50;;;;;;;7.47;1.52;;;;;;;16.40;100.00;99985.53;5107421;28;20143;-68
2023/08/30 10:42:17;;;;;;;8.20;2.42;;;;;;;16.09;100.00;99990.41;5106564;28;20054;-68
2023/08/30 10:45:06;;;;;;;5.95;1.80;;;;;;;16.27;100.00;99993.53;5107726;28;20062;-68
2023/08/30 10:47:37;;;;;;;7.05;1.42;;;;;;;16.47;100.00;99973.56;5099986;28;20036;-68
2023/08/30 10:50:07;;;;;;;11.05;2.13;;;;;;;16.70;100.00;99978.94;5095914;28;20050;-68
2023/08/30 10:52:34;;;;;;;5.40;1.52;;;;;;;16.71;100.00;99985.88;5107460;28;20051;-68
2023/08/30 10:55:09;;;;;;;6.80;1.42;;;;;;;16.70;100.00;99993.00;5103700;27;20044;-68
2023/08/30 10:57:37;;;;;;;7.45;1.70;;;;;;;17.15;100.00;99984.34;5099649;28;20506;-68
2023/08/30 11:00:10;;;;;;;8.25;1.70;;;;;;;16.84;100.00;99991.97;5099390;28;20492;-68
2023/08/30 11:02:38;;;;;;;9.43;1.88;;;;;;;16.88;100.00;99987.31;5101408;27;20397;-68
2023/08/30 11:05:08;;;;;;;5.85;1.80;;;;;;;16.64;100.00;99996.09;5104650;27;20090;-69
2023/08/30 11:07:35;;;;;;;6.72;1.55;;;;;;;16.87;100.00;100001.47;5096300;28;20051;-68
2023/08/30 11:10:06;;;;;;;9.48;1.73;;;;;;;17.04;100.00;100001.03;5101201;28;20134;-68
2023/08/30 11:12:33;;;;;;;6.53;1.70;;;;;;;17.26;100.00;99983.50;5099663;28;20055;-68
2023/08/30 11:15:01;;;;;;;8.82;1.80;;;;;;;17.51;100.00;99993.03;5109602;28;20438;-68
2023/08/30 11:17:28;;;;;;;7.65;1.77;;;;;;;16.86;100.00;100000.63;5123907;27;20050;-68
2023/08/30 11:20:06;;;;;;;7.30;1.70;;;;;;;16.67;100.00;100002.94;5109282;28;20047;-69
2023/08/30 11:22:44;;;;;;;7.85;1.88;;;;;;;16.56;100.00;100011.69;5100750;28;20048;-68
2023/08/30 11:25:12;;;;;;;8.38;1.75;;;;;;;16.77;100.00;100001.31;5101752;28;20044;-69
2023/08/30 11:27:40;;;;;;;5.57;1.48;;;;;;;17.07;100.00;100000.81;5091512;28;20127;-68